Terminal Aerodrome Forecast
Issued by NWS

Current Version | Previous Version | Text Only | Print | Product List | Glossary On
Versions: 1 2 3 4 5 6 7 8 9 10 11 12 13 14 15 16 17
000
FTUS41 KAKQ 090547 RRA
TAFPHF
TAF
KPHF 090547Z 0906/1006 12004KT P6SM BKN025 BKN080
      TEMPO 0906/0908 5SM -RA BR BKN015
     FM091000 26006KT P6SM BKN020 BKN050
     FM091600 25011G18KT P6SM BKN050
     FM100000 26009KT P6SM BKN050=

USA.gov is the U.S. government's official web portal to all federal, state and local government web resources and services.